sensor_id;sensor_type;location;lat;lon;timestamp;temperature;humidity
76855;DHT22;66343;44.588;33.450;2023-04-24T00:00:53;13.02;71.67
76855;DHT22;66343;44.588;33.450;2023-04-24T00:03:24;13.02;71.84
76855;DHT22;66343;44.588;33.450;2023-04-24T00:05:54;13.02;71.89
76855;DHT22;66343;44.588;33.450;2023-04-24T00:08:26;13.02;71.80
76855;DHT22;66343;44.588;33.450;2023-04-24T00:10:58;13.06;71.58
76855;DHT22;66343;44.588;33.450;2023-04-24T00:13:34;13.01;71.74
76855;DHT22;66343;44.588;33.450;2023-04-24T00:16:09;12.95;72.09
76855;DHT22;66343;44.588;33.450;2023-04-24T00:18:38;12.92;72.21
76855;DHT22;66343;44.588;33.450;2023-04-24T00:21:07;12.92;72.17
76855;DHT22;66343;44.588;33.450;2023-04-24T00:23:42;12.96;72.00
76855;DHT22;66343;44.588;33.450;2023-04-24T00:26:14;12.96;71.96
76855;DHT22;66343;44.588;33.450;2023-04-24T00:28:46;12.95;71.96
76855;DHT22;66343;44.588;33.450;2023-04-24T00:31:17;12.97;71.92
76855;DHT22;66343;44.588;33.450;2023-04-24T00:33:50;12.97;71.86
76855;DHT22;66343;44.588;33.450;2023-04-24T00:36:20;12.99;71.74
76855;DHT22;66343;44.588;33.450;2023-04-24T00:38:53;12.99;71.71
76855;DHT22;66343;44.588;33.450;2023-04-24T00:41:27;12.99;71.60
76855;DHT22;66343;44.588;33.450;2023-04-24T00:44:01;13.01;71.26
76855;DHT22;66343;44.588;33.450;2023-04-24T00:46:30;13.00;71.40
76855;DHT22;66343;44.588;33.450;2023-04-24T00:49:02;13.00;71.40
76855;DHT22;66343;44.588;33.450;2023-04-24T00:51:40;12.96;71.64
76855;DHT22;66343;44.588;33.450;2023-04-24T00:54:25;12.99;71.52
76855;DHT22;66343;44.588;33.450;2023-04-24T00:56:55;13.03;71.29
76855;DHT22;66343;44.588;33.450;2023-04-24T00:59:41;13.03;71.19
76855;DHT22;66343;44.588;33.450;2023-04-24T01:02:11;13.00;71.23
76855;DHT22;66343;44.588;33.450;2023-04-24T01:04:41;12.93;71.45
76855;DHT22;66343;44.588;33.450;2023-04-24T01:07:11;12.90;71.78
76855;DHT22;66343;44.588;33.450;2023-04-24T01:09:45;12.85;71.85
76855;DHT22;66343;44.588;33.450;2023-04-24T01:12:19;12.85;71.85
76855;DHT22;66343;44.588;33.450;2023-04-24T01:14:52;12.81;71.92
76855;DHT22;66343;44.588;33.450;2023-04-24T01:17:41;12.78;72.06
76855;DHT22;66343;44.588;33.450;2023-04-24T01:20:11;12.76;72.16
76855;DHT22;66343;44.588;33.450;2023-04-24T01:22:44;12.78;72.12
76855;DHT22;66343;44.588;33.450;2023-04-24T01:25:17;12.70;72.69
76855;DHT22;66343;44.588;33.450;2023-04-24T01:27:59;12.67;72.36
76855;DHT22;66343;44.588;33.450;2023-04-24T01:30:32;12.62;72.45
76855;DHT22;66343;44.588;33.450;2023-04-24T01:33:04;12.59;72.61
76855;DHT22;66343;44.588;33.450;2023-04-24T01:35:34;12.49;72.79
76855;DHT22;66343;44.588;33.450;2023-04-24T01:38:09;12.44;72.89
76855;DHT22;66343;44.588;33.450;2023-04-24T01:40:40;12.43;72.95
76855;DHT22;66343;44.588;33.450;2023-04-24T01:43:12;12.46;72.89
76855;DHT22;66343;44.588;33.450;2023-04-24T01:45:41;12.42;73.06
76855;DHT22;66343;44.588;33.450;2023-04-24T01:48:16;12.41;72.80
76855;DHT22;66343;44.588;33.450;2023-04-24T01:50:45;12.36;73.02
76855;DHT22;66343;44.588;33.450;2023-04-24T01:53:19;12.36;72.95
76855;DHT22;66343;44.588;33.450;2023-04-24T01:55:53;12.38;72.84
76855;DHT22;66343;44.588;33.450;2023-04-24T01:58:25;12.38;72.93
76855;DHT22;66343;44.588;33.450;2023-04-24T02:01:00;12.35;73.10
76855;DHT22;66343;44.588;33.450;2023-04-24T02:03:34;12.32;73.22
76855;DHT22;66343;44.588;33.450;2023-04-24T02:06:04;12.32;73.07
76855;DHT22;66343;44.588;33.450;2023-04-24T02:08:36;12.30;72.72
76855;DHT22;66343;44.588;33.450;2023-04-24T02:11:11;12.25;73.06
76855;DHT22;66343;44.588;33.450;2023-04-24T02:13:45;12.17;73.50
76855;DHT22;66343;44.588;33.450;2023-04-24T02:16:14;12.13;73.79
76855;DHT22;66343;44.588;33.450;2023-04-24T02:18:46;12.15;73.61
76855;DHT22;66343;44.588;33.450;2023-04-24T02:21:15;12.12;73.41
76855;DHT22;66343;44.588;33.450;2023-04-24T02:23:46;12.08;73.72
76855;DHT22;66343;44.588;33.450;2023-04-24T02:26:18;12.13;73.39
76855;DHT22;66343;44.588;33.450;2023-04-24T02:28:47;12.17;73.06
76855;DHT22;66343;44.588;33.450;2023-04-24T02:31:24;12.15;72.93
76855;DHT22;66343;44.588;33.450;2023-04-24T02:33:56;12.11;72.89
76855;DHT22;66343;44.588;33.450;2023-04-24T02:36:25;12.10;72.90
76855;DHT22;66343;44.588;33.450;2023-04-24T02:38:55;12.07;72.79
76855;DHT22;66343;44.588;33.450;2023-04-24T02:41:26;12.10;72.62
76855;DHT22;66343;44.588;33.450;2023-04-24T02:44:00;12.11;72.41
76855;DHT22;66343;44.588;33.450;2023-04-24T02:46:34;12.12;72.10
76855;DHT22;66343;44.588;33.450;2023-04-24T02:49:02;12.14;72.01
76855;DHT22;66343;44.588;33.450;2023-04-24T02:51:40;12.13;71.74
76855;DHT22;66343;44.588;33.450;2023-04-24T02:54:12;12.14;71.02
76855;DHT22;66343;44.588;33.450;2023-04-24T02:56:41;12.14;70.77
76855;DHT22;66343;44.588;33.450;2023-04-24T02:59:10;12.16;70.71
76855;DHT22;66343;44.588;33.450;2023-04-24T03:01:45;12.20;70.95
76855;DHT22;66343;44.588;33.450;2023-04-24T03:04:17;12.16;70.37
76855;DHT22;66343;44.588;33.450;2023-04-24T03:06:49;12.11;70.65
76855;DHT22;66343;44.588;33.450;2023-04-24T03:09:22;12.06;70.82
76855;DHT22;66343;44.588;33.450;2023-04-24T03:11:53;12.07;70.47
76855;DHT22;66343;44.588;33.450;2023-04-24T03:14:22;12.13;70.18
76855;DHT22;66343;44.588;33.450;2023-04-24T03:16:56;12.17;70.19
76855;DHT22;66343;44.588;33.450;2023-04-24T03:19:31;12.17;69.94
76855;DHT22;66343;44.588;33.450;2023-04-24T03:22:07;12.14;69.80
76855;DHT22;66343;44.588;33.450;2023-04-24T03:24:41;12.11;69.26
76855;DHT22;66343;44.588;33.450;2023-04-24T03:27:10;12.15;69.36
76855;DHT22;66343;44.588;33.450;2023-04-24T03:30:08;12.15;68.54
76855;DHT22;66343;44.588;33.450;2023-04-24T03:32:48;12.06;69.17
76855;DHT22;66343;44.588;33.450;2023-04-24T03:35:23;11.94;70.52
76855;DHT22;66343;44.588;33.450;2023-04-24T03:37:55;11.87;71.34
76855;DHT22;66343;44.588;33.450;2023-04-24T03:40:44;11.87;71.24
76855;DHT22;66343;44.588;33.450;2023-04-24T03:43:42;11.87;70.74
76855;DHT22;66343;44.588;33.450;2023-04-24T03:46:14;11.89;70.93
76855;DHT22;66343;44.588;33.450;2023-04-24T03:49:02;11.94;70.72
76855;DHT22;66343;44.588;33.450;2023-04-24T03:51:36;12.01;70.29
76855;DHT22;66343;44.588;33.450;2023-04-24T03:54:15;12.06;69.93
76855;DHT22;66343;44.588;33.450;2023-04-24T03:56:49;12.07;69.68
76855;DHT22;66343;44.588;33.450;2023-04-24T03:59:25;12.11;69.15
76855;DHT22;66343;44.588;33.450;2023-04-24T04:02:16;12.15;69.20
76855;DHT22;66343;44.588;33.450;2023-04-24T04:04:51;12.13;68.13
76855;DHT22;66343;44.588;33.450;2023-04-24T04:07:21;12.17;68.10
76855;DHT22;66343;44.588;33.450;2023-04-24T04:09:52;12.25;68.06
76855;DHT22;66343;44.588;33.450;2023-04-24T04:12:27;12.29;67.02
76855;DHT22;66343;44.588;33.450;2023-04-24T04:14:56;12.36;66.55
76855;DHT22;66343;44.588;33.450;2023-04-24T04:17:26;12.41;65.96
76855;DHT22;66343;44.588;33.450;2023-04-24T04:19:58;12.46;65.94
76855;DHT22;66343;44.588;33.450;2023-04-24T04:22:27;12.49;65.97
76855;DHT22;66343;44.588;33.450;2023-04-24T04:24:58;12.56;66.21
76855;DHT22;66343;44.588;33.450;2023-04-24T04:27:31;12.61;66.59
76855;DHT22;66343;44.588;33.450;2023-04-24T04:30:16;12.69;65.43
76855;DHT22;66343;44.588;33.450;2023-04-24T04:32:54;12.77;64.97
76855;DHT22;66343;44.588;33.450;2023-04-24T04:35:27;12.86;65.07
76855;DHT22;66343;44.588;33.450;2023-04-24T04:38:02;12.96;64.05
76855;DHT22;66343;44.588;33.450;2023-04-24T04:40:46;13.00;63.70
76855;DHT22;66343;44.588;33.450;2023-04-24T04:43:19;13.09;63.49
76855;DHT22;66343;44.588;33.450;2023-04-24T04:45:54;13.16;62.92
76855;DHT22;66343;44.588;33.450;2023-04-24T04:48:42;13.23;63.10
76855;DHT22;66343;44.588;33.450;2023-04-24T04:51:11;13.30;62.32
76855;DHT22;66343;44.588;33.450;2023-04-24T04:53:41;13.37;61.60
76855;DHT22;66343;44.588;33.450;2023-04-24T04:56:12;13.43;61.61
76855;DHT22;66343;44.588;33.450;2023-04-24T04:58:46;13.47;61.79
76855;DHT22;66343;44.588;33.450;2023-04-24T05:01:23;13.52;61.18
76855;DHT22;66343;44.588;33.450;2023-04-24T05:03:57;13.56;61.40
76855;DHT22;66343;44.588;33.450;2023-04-24T05:06:27;13.64;61.51
76855;DHT22;66343;44.588;33.450;2023-04-24T05:09:05;13.75;61.18
76855;DHT22;66343;44.588;33.450;2023-04-24T05:11:45;13.82;61.34
76855;DHT22;66343;44.588;33.450;2023-04-24T05:14:16;13.86;61.39
76855;DHT22;66343;44.588;33.450;2023-04-24T05:16:52;13.89;61.43
76855;DHT22;66343;44.588;33.450;2023-04-24T05:19:29;13.93;61.18
76855;DHT22;66343;44.588;33.450;2023-04-24T05:22:02;14.00;61.18
76855;DHT22;66343;44.588;33.450;2023-04-24T05:24:34;14.05;60.89
76855;DHT22;66343;44.588;33.450;2023-04-24T05:27:03;14.08;61.12
76855;DHT22;66343;44.588;33.450;2023-04-24T05:29:40;14.05;61.02
76855;DHT22;66343;44.588;33.450;2023-04-24T05:32:15;14.06;61.22
76855;DHT22;66343;44.588;33.450;2023-04-24T05:34:51;14.12;61.25
76855;DHT22;66343;44.588;33.450;2023-04-24T05:37:20;14.19;61.05
76855;DHT22;66343;44.588;33.450;2023-04-24T05:39:52;14.27;60.94
76855;DHT22;66343;44.588;33.450;2023-04-24T05:42:20;14.27;60.74
76855;DHT22;66343;44.588;33.450;2023-04-24T05:44:55;14.27;60.60
76855;DHT22;66343;44.588;33.450;2023-04-24T05:47:28;14.35;60.56
76855;DHT22;66343;44.588;33.450;2023-04-24T05:50:01;14.38;60.41
76855;DHT22;66343;44.588;33.450;2023-04-24T05:52:31;14.39;60.22
76855;DHT22;66343;44.588;33.450;2023-04-24T05:55:03;14.42;60.12
76855;DHT22;66343;44.588;33.450;2023-04-24T05:57:36;14.44;60.43
76855;DHT22;66343;44.588;33.450;2023-04-24T06:00:07;14.51;60.26
76855;DHT22;66343;44.588;33.450;2023-04-24T06:02:44;14.59;59.90
76855;DHT22;66343;44.588;33.450;2023-04-24T06:05:18;14.69;59.83
76855;DHT22;66343;44.588;33.450;2023-04-24T06:07:50;14.74;59.53
76855;DHT22;66343;44.588;33.450;2023-04-24T06:10:27;14.78;59.35
76855;DHT22;66343;44.588;33.450;2023-04-24T06:12:56;14.78;58.86
76855;DHT22;66343;44.588;33.450;2023-04-24T06:15:30;14.83;58.76
76855;DHT22;66343;44.588;33.450;2023-04-24T06:18:08;14.87;58.29
76855;DHT22;66343;44.588;33.450;2023-04-24T06:20:41;14.98;58.37
76855;DHT22;66343;44.588;33.450;2023-04-24T06:23:14;15.04;57.37
76855;DHT22;66343;44.588;33.450;2023-04-24T06:25:44;15.10;56.32
76855;DHT22;66343;44.588;33.450;2023-04-24T06:28:13;15.13;54.36
76855;DHT22;66343;44.588;33.450;2023-04-24T06:30:43;15.15;53.84
76855;DHT22;66343;44.588;33.450;2023-04-24T06:33:13;15.18;53.43
76855;DHT22;66343;44.588;33.450;2023-04-24T06:35:49;15.18;52.73
76855;DHT22;66343;44.588;33.450;2023-04-24T06:38:18;15.21;52.66
76855;DHT22;66343;44.588;33.450;2023-04-24T06:40:56;15.31;52.62
76855;DHT22;66343;44.588;33.450;2023-04-24T06:43:26;15.37;52.52
76855;DHT22;66343;44.588;33.450;2023-04-24T06:45:55;15.37;52.62
76855;DHT22;66343;44.588;33.450;2023-04-24T06:48:24;15.32;48.80
76855;DHT22;66343;44.588;33.450;2023-04-24T06:50:56;15.33;50.88
76855;DHT22;66343;44.588;33.450;2023-04-24T06:53:28;15.31;49.98
76855;DHT22;66343;44.588;33.450;2023-04-24T06:56:01;15.40;50.03
76855;DHT22;66343;44.588;33.450;2023-04-24T06:58:32;15.52;50.16
76855;DHT22;66343;44.588;33.450;2023-04-24T07:01:04;15.62;49.22
76855;DHT22;66343;44.588;33.450;2023-04-24T07:03:40;15.68;49.57
76855;DHT22;66343;44.588;33.450;2023-04-24T07:06:15;15.73;52.28
76855;DHT22;66343;44.588;33.450;2023-04-24T07:08:49;15.70;53.77
76855;DHT22;66343;44.588;33.450;2023-04-24T07:11:21;15.66;54.81
76855;DHT22;66343;44.588;33.450;2023-04-24T07:14:00;15.66;55.43
76855;DHT22;66343;44.588;33.450;2023-04-24T07:16:31;15.66;53.93
76855;DHT22;66343;44.588;33.450;2023-04-24T07:19:04;15.61;55.78
76855;DHT22;66343;44.588;33.450;2023-04-24T07:21:36;15.59;55.99
76855;DHT22;66343;44.588;33.450;2023-04-24T07:24:14;15.63;55.36
76855;DHT22;66343;44.588;33.450;2023-04-24T07:26:54;15.63;54.79
76855;DHT22;66343;44.588;33.450;2023-04-24T07:29:29;15.60;52.04
76855;DHT22;66343;44.588;33.450;2023-04-24T07:31:58;15.62;54.15
76855;DHT22;66343;44.588;33.450;2023-04-24T07:38:56;15.70;51.31
76855;DHT22;66343;44.588;33.450;2023-04-24T07:41:27;15.74;50.32
76855;DHT22;66343;44.588;33.450;2023-04-24T07:44:04;15.84;48.26
76855;DHT22;66343;44.588;33.450;2023-04-24T07:46:33;15.91;49.47
76855;DHT22;66343;44.588;33.450;2023-04-24T07:49:10;15.95;46.91
76855;DHT22;66343;44.588;33.450;2023-04-24T07:51:41;15.95;47.33
76855;DHT22;66343;44.588;33.450;2023-04-24T07:54:13;15.91;52.04
76855;DHT22;66343;44.588;33.450;2023-04-24T07:56:46;15.85;58.45
76855;DHT22;66343;44.588;33.450;2023-04-24T07:59:18;15.80;57.51
76855;DHT22;66343;44.588;33.450;2023-04-24T08:01:46;15.71;58.26
76855;DHT22;66343;44.588;33.450;2023-04-24T08:04:21;15.65;55.44
76855;DHT22;66343;44.588;33.450;2023-04-24T08:06:52;15.65;54.94
76855;DHT22;66343;44.588;33.450;2023-04-24T08:09:30;15.67;58.01
76855;DHT22;66343;44.588;33.450;2023-04-24T08:11:59;15.59;58.38
76855;DHT22;66343;44.588;33.450;2023-04-24T08:14:31;15.61;55.97
76855;DHT22;66343;44.588;33.450;2023-04-24T08:17:00;15.55;58.79
76855;DHT22;66343;44.588;33.450;2023-04-24T08:19:32;15.61;57.77
76855;DHT22;66343;44.588;33.450;2023-04-24T08:22:04;15.61;56.03
76855;DHT22;66343;44.588;33.450;2023-04-24T08:24:33;15.59;57.18
76855;DHT22;66343;44.588;33.450;2023-04-24T08:27:07;15.51;53.81
76855;DHT22;66343;44.588;33.450;2023-04-24T08:29:37;15.25;56.25
76855;DHT22;66343;44.588;33.450;2023-04-24T08:32:06;15.07;57.04
76855;DHT22;66343;44.588;33.450;2023-04-24T08:34:40;15.04;57.55
76855;DHT22;66343;44.588;33.450;2023-04-24T08:37:12;15.04;57.71
76855;DHT22;66343;44.588;33.450;2023-04-24T08:39:41;15.02;57.81
76855;DHT22;66343;44.588;33.450;2023-04-24T08:42:14;15.06;58.02
76855;DHT22;66343;44.588;33.450;2023-04-24T08:44:50;15.02;58.63
76855;DHT22;66343;44.588;33.450;2023-04-24T08:47:22;15.10;59.51
76855;DHT22;66343;44.588;33.450;2023-04-24T08:49:54;15.04;60.41
76855;DHT22;66343;44.588;33.450;2023-04-24T08:52:26;14.96;59.79
76855;DHT22;66343;44.588;33.450;2023-04-24T08:54:56;14.99;59.11
76855;DHT22;66343;44.588;33.450;2023-04-24T08:57:29;15.06;59.31
76855;DHT22;66343;44.588;33.450;2023-04-24T09:00:03;15.14;58.26
76855;DHT22;66343;44.588;33.450;2023-04-24T09:02:37;15.19;59.37
76855;DHT22;66343;44.588;33.450;2023-04-24T09:05:12;15.29;59.48
76855;DHT22;66343;44.588;33.450;2023-04-24T09:07:45;15.40;58.75
76855;DHT22;66343;44.588;33.450;2023-04-24T09:10:16;15.36;59.15
76855;DHT22;66343;44.588;33.450;2023-04-24T09:12:48;15.30;58.95
76855;DHT22;66343;44.588;33.450;2023-04-24T09:15:19;15.34;58.62
76855;DHT22;66343;44.588;33.450;2023-04-24T09:17:50;15.44;58.59
76855;DHT22;66343;44.588;33.450;2023-04-24T09:20:19;15.40;59.16
76855;DHT22;66343;44.588;33.450;2023-04-24T09:22:54;15.45;60.37
76855;DHT22;66343;44.588;33.450;2023-04-24T09:25:36;15.70;59.20
76855;DHT22;66343;44.588;33.450;2023-04-24T09:28:05;15.75;58.80
76855;DHT22;66343;44.588;33.450;2023-04-24T09:30:37;15.58;57.78
76855;DHT22;66343;44.588;33.450;2023-04-24T09:33:15;15.45;58.07
76855;DHT22;66343;44.588;33.450;2023-04-24T09:35:53;15.51;58.57
76855;DHT22;66343;44.588;33.450;2023-04-24T09:38:38;15.62;58.05
76855;DHT22;66343;44.588;33.450;2023-04-24T09:41:12;15.69;57.66
76855;DHT22;66343;44.588;33.450;2023-04-24T09:43:44;15.56;58.23
76855;DHT22;66343;44.588;33.450;2023-04-24T09:46:13;15.63;57.93
76855;DHT22;66343;44.588;33.450;2023-04-24T09:48:46;15.60;58.97
76855;DHT22;66343;44.588;33.450;2023-04-24T09:51:15;15.57;58.65
76855;DHT22;66343;44.588;33.450;2023-04-24T09:53:47;15.52;58.66
76855;DHT22;66343;44.588;33.450;2023-04-24T09:56:29;15.61;57.13
76855;DHT22;66343;44.588;33.450;2023-04-24T09:59:10;15.72;57.90
76855;DHT22;66343;44.588;33.450;2023-04-24T10:01:39;15.78;58.38
76855;DHT22;66343;44.588;33.450;2023-04-24T10:04:21;16.02;56.53
76855;DHT22;66343;44.588;33.450;2023-04-24T10:06:56;16.11;57.73
76855;DHT22;66343;44.588;33.450;2023-04-24T10:09:26;16.18;56.72
76855;DHT22;66343;44.588;33.450;2023-04-24T10:11:57;16.31;55.54
76855;DHT22;66343;44.588;33.450;2023-04-24T10:14:27;16.25;55.84
76855;DHT22;66343;44.588;33.450;2023-04-24T10:16:58;16.27;55.10
76855;DHT22;66343;44.588;33.450;2023-04-24T10:19:30;16.20;55.71
76855;DHT22;66343;44.588;33.450;2023-04-24T10:22:02;16.15;55.65
76855;DHT22;66343;44.588;33.450;2023-04-24T10:24:34;16.08;56.36
76855;DHT22;66343;44.588;33.450;2023-04-24T10:27:07;16.03;56.89
76855;DHT22;66343;44.588;33.450;2023-04-24T10:29:38;16.21;57.27
76855;DHT22;66343;44.588;33.450;2023-04-24T10:32:07;16.36;58.16
76855;DHT22;66343;44.588;33.450;2023-04-24T10:34:38;16.36;57.20
76855;DHT22;66343;44.588;33.450;2023-04-24T10:37:07;16.32;57.42
76855;DHT22;66343;44.588;33.450;2023-04-24T10:39:36;16.51;57.39
76855;DHT22;66343;44.588;33.450;2023-04-24T10:42:15;16.61;57.60
76855;DHT22;66343;44.588;33.450;2023-04-24T10:44:47;16.45;58.02
76855;DHT22;66343;44.588;33.450;2023-04-24T10:47:20;16.32;60.16
76855;DHT22;66343;44.588;33.450;2023-04-24T10:49:50;16.28;57.96
76855;DHT22;66343;44.588;33.450;2023-04-24T10:52:26;16.41;59.77
76855;DHT22;66343;44.588;33.450;2023-04-24T10:55:17;16.56;61.96
76855;DHT22;66343;44.588;33.450;2023-04-24T10:58:07;16.57;62.42
76855;DHT22;66343;44.588;33.450;2023-04-24T11:00:38;16.36;62.69
76855;DHT22;66343;44.588;33.450;2023-04-24T11:03:28;16.40;60.96
76855;DHT22;66343;44.588;33.450;2023-04-24T11:06:08;16.39;61.68
76855;DHT22;66343;44.588;33.450;2023-04-24T11:08:43;16.48;61.68
76855;DHT22;66343;44.588;33.450;2023-04-24T11:11:18;16.54;62.17
76855;DHT22;66343;44.588;33.450;2023-04-24T11:16:52;16.61;60.76
76855;DHT22;66343;44.588;33.450;2023-04-24T11:19:41;16.70;60.82
76855;DHT22;66343;44.588;33.450;2023-04-24T11:22:19;16.99;59.83
76855;DHT22;66343;44.588;33.450;2023-04-24T11:24:50;17.08;59.25
76855;DHT22;66343;44.588;33.450;2023-04-24T11:27:47;17.08;59.68
76855;DHT22;66343;44.588;33.450;2023-04-24T11:30:19;16.96;60.53
76855;DHT22;66343;44.588;33.450;2023-04-24T11:32:51;17.05;60.22
76855;DHT22;66343;44.588;33.450;2023-04-24T11:35:22;17.17;60.42
76855;DHT22;66343;44.588;33.450;2023-04-24T11:37:59;17.24;60.04
76855;DHT22;66343;44.588;33.450;2023-04-24T11:40:54;17.62;58.41
76855;DHT22;66343;44.588;33.450;2023-04-24T11:43:28;17.62;58.83
76855;DHT22;66343;44.588;33.450;2023-04-24T11:46:03;17.65;56.51
76855;DHT22;66343;44.588;33.450;2023-04-24T11:48:36;17.78;57.35
76855;DHT22;66343;44.588;33.450;2023-04-24T11:51:13;18.15;55.00
76855;DHT22;66343;44.588;33.450;2023-04-24T11:53:42;18.22;55.07
76855;DHT22;66343;44.588;33.450;2023-04-24T11:56:19;18.24;54.06
76855;DHT22;66343;44.588;33.450;2023-04-24T11:58:48;18.05;55.33
76855;DHT22;66343;44.588;33.450;2023-04-24T12:01:22;18.20;54.17
76855;DHT22;66343;44.588;33.450;2023-04-24T12:03:59;18.21;53.56
76855;DHT22;66343;44.588;33.450;2023-04-24T12:06:30;18.33;54.22
76855;DHT22;66343;44.588;33.450;2023-04-24T12:09:02;18.50;52.65
76855;DHT22;66343;44.588;33.450;2023-04-24T12:11:55;18.48;53.17
76855;DHT22;66343;44.588;33.450;2023-04-24T12:14:30;18.52;52.75
76855;DHT22;66343;44.588;33.450;2023-04-24T12:16:58;18.62;50.93
76855;DHT22;66343;44.588;33.450;2023-04-24T12:19:29;18.67;50.18
76855;DHT22;66343;44.588;33.450;2023-04-24T12:22:03;18.61;50.51
76855;DHT22;66343;44.588;33.450;2023-04-24T12:24:54;18.66;50.40
76855;DHT22;66343;44.588;33.450;2023-04-24T12:27:22;18.52;51.95
76855;DHT22;66343;44.588;33.450;2023-04-24T12:29:53;18.52;52.98
76855;DHT22;66343;44.588;33.450;2023-04-24T12:32:22;18.43;52.27
76855;DHT22;66343;44.588;33.450;2023-04-24T12:35:00;18.49;54.16
76855;DHT22;66343;44.588;33.450;2023-04-24T12:37:37;18.87;53.23
76855;DHT22;66343;44.588;33.450;2023-04-24T12:40:16;19.32;51.47
76855;DHT22;66343;44.588;33.450;2023-04-24T12:42:51;19.72;50.40
76855;DHT22;66343;44.588;33.450;2023-04-24T12:45:22;19.89;49.15
76855;DHT22;66343;44.588;33.450;2023-04-24T12:47:53;19.72;48.52
76855;DHT22;66343;44.588;33.450;2023-04-24T12:50:22;19.68;47.22
76855;DHT22;66343;44.588;33.450;2023-04-24T12:52:51;19.55;44.89
76855;DHT22;66343;44.588;33.450;2023-04-24T12:55:26;19.48;46.60
76855;DHT22;66343;44.588;33.450;2023-04-24T12:58:01;19.60;46.12
76855;DHT22;66343;44.588;33.450;2023-04-24T13:00:35;19.73;48.05
76855;DHT22;66343;44.588;33.450;2023-04-24T13:03:04;19.72;48.94
76855;DHT22;66343;44.588;33.450;2023-04-24T13:05:36;20.03;48.48
76855;DHT22;66343;44.588;33.450;2023-04-24T13:08:10;20.14;48.15
76855;DHT22;66343;44.588;33.450;2023-04-24T13:10:44;20.14;48.79
76855;DHT22;66343;44.588;33.450;2023-04-24T13:13:16;20.29;48.80
76855;DHT22;66343;44.588;33.450;2023-04-24T13:15:47;20.53;48.78
76855;DHT22;66343;44.588;33.450;2023-04-24T13:18:16;20.56;48.71
76855;DHT22;66343;44.588;33.450;2023-04-24T13:20:46;20.48;49.02
76855;DHT22;66343;44.588;33.450;2023-04-24T13:23:15;20.34;49.22
76855;DHT22;66343;44.588;33.450;2023-04-24T13:25:45;20.35;49.44
76855;DHT22;66343;44.588;33.450;2023-04-24T13:28:15;20.49;48.98
76855;DHT22;66343;44.588;33.450;2023-04-24T13:30:46;20.61;47.48
76855;DHT22;66343;44.588;33.450;2023-04-24T13:33:16;20.11;48.69
76855;DHT22;66343;44.588;33.450;2023-04-24T13:35:46;20.35;48.43
76855;DHT22;66343;44.588;33.450;2023-04-24T13:38:19;20.40;47.76
76855;DHT22;66343;44.588;33.450;2023-04-24T13:40:50;20.29;48.49
76855;DHT22;66343;44.588;33.450;2023-04-24T13:43:19;20.53;48.14
76855;DHT22;66343;44.588;33.450;2023-04-24T13:45:50;20.73;48.99
76855;DHT22;66343;44.588;33.450;2023-04-24T13:48:21;20.93;47.95
76855;DHT22;66343;44.588;33.450;2023-04-24T13:50:51;20.88;48.42
76855;DHT22;66343;44.588;33.450;2023-04-24T13:53:20;20.24;49.85
76855;DHT22;66343;44.588;33.450;2023-04-24T13:55:49;20.05;51.69
76855;DHT22;66343;44.588;33.450;2023-04-24T13:58:18;20.17;51.25
76855;DHT22;66343;44.588;33.450;2023-04-24T14:00:49;20.45;50.40
76855;DHT22;66343;44.588;33.450;2023-04-24T14:03:22;20.60;49.89
76855;DHT22;66343;44.588;33.450;2023-04-24T14:05:51;20.58;49.81
76855;DHT22;66343;44.588;33.450;2023-04-24T14:08:20;20.57;50.08
76855;DHT22;66343;44.588;33.450;2023-04-24T14:10:55;20.69;48.57
76855;DHT22;66343;44.588;33.450;2023-04-24T14:13:25;20.73;48.18
76855;DHT22;66343;44.588;33.450;2023-04-24T14:15:56;20.95;46.40
76855;DHT22;66343;44.588;33.450;2023-04-24T14:18:26;20.94;46.71
76855;DHT22;66343;44.588;33.450;2023-04-24T14:20:58;20.77;48.04
76855;DHT22;66343;44.588;33.450;2023-04-24T14:23:28;20.95;47.56
76855;DHT22;66343;44.588;33.450;2023-04-24T14:26:00;20.86;47.37
76855;DHT22;66343;44.588;33.450;2023-04-24T14:28:35;20.71;46.42
76855;DHT22;66343;44.588;33.450;2023-04-24T14:31:04;20.31;48.47
76855;DHT22;66343;44.588;33.450;2023-04-24T14:33:37;20.41;48.47
76855;DHT22;66343;44.588;33.450;2023-04-24T14:36:09;20.81;47.82
76855;DHT22;66343;44.588;33.450;2023-04-24T14:38:39;21.07;46.95
76855;DHT22;66343;44.588;33.450;2023-04-24T14:41:11;21.27;46.10
76855;DHT22;66343;44.588;33.450;2023-04-24T14:43:44;21.45;46.09
76855;DHT22;66343;44.588;33.450;2023-04-24T14:46:15;21.52;45.06
76855;DHT22;66343;44.588;33.450;2023-04-24T14:48:46;21.19;45.12
76855;DHT22;66343;44.588;33.450;2023-04-24T14:51:19;20.95;45.78
76855;DHT22;66343;44.588;33.450;2023-04-24T14:53:51;20.76;45.58
76855;DHT22;66343;44.588;33.450;2023-04-24T14:56:24;20.54;46.81
76855;DHT22;66343;44.588;33.450;2023-04-24T14:58:56;21.03;44.83
76855;DHT22;66343;44.588;33.450;2023-04-24T15:01:25;21.29;44.72
76855;DHT22;66343;44.588;33.450;2023-04-24T15:04:03;21.18;43.73
76855;DHT22;66343;44.588;33.450;2023-04-24T15:06:34;21.22;42.85
76855;DHT22;66343;44.588;33.450;2023-04-24T15:09:10;21.38;44.19
76855;DHT22;66343;44.588;33.450;2023-04-24T15:11:42;21.67;42.72
76855;DHT22;66343;44.588;33.450;2023-04-24T15:14:13;21.57;43.03
76855;DHT22;66343;44.588;33.450;2023-04-24T15:16:43;21.63;42.79
76855;DHT22;66343;44.588;33.450;2023-04-24T15:19:17;21.42;42.26
76855;DHT22;66343;44.588;33.450;2023-04-24T15:21:47;21.33;42.25
76855;DHT22;66343;44.588;33.450;2023-04-24T15:24:17;20.81;43.03
76855;DHT22;66343;44.588;33.450;2023-04-24T15:26:54;20.48;42.97
76855;DHT22;66343;44.588;33.450;2023-04-24T15:29:29;20.46;44.39
76855;DHT22;66343;44.588;33.450;2023-04-24T15:32:01;20.50;44.53
76855;DHT22;66343;44.588;33.450;2023-04-24T15:34:31;20.32;45.53
76855;DHT22;66343;44.588;33.450;2023-04-24T15:37:02;20.25;44.71
76855;DHT22;66343;44.588;33.450;2023-04-24T15:39:34;20.15;45.34
76855;DHT22;66343;44.588;33.450;2023-04-24T15:42:04;20.05;44.26
76855;DHT22;66343;44.588;33.450;2023-04-24T15:44:35;19.81;46.04
76855;DHT22;66343;44.588;33.450;2023-04-24T15:47:04;19.72;46.54
76855;DHT22;66343;44.588;33.450;2023-04-24T15:49:40;19.56;47.54
76855;DHT22;66343;44.588;33.450;2023-04-24T15:52:09;19.61;47.09
76855;DHT22;66343;44.588;33.450;2023-04-24T15:54:45;19.38;47.56
76855;DHT22;66343;44.588;33.450;2023-04-24T15:57:14;19.36;47.47
76855;DHT22;66343;44.588;33.450;2023-04-24T15:59:46;19.31;48.61